Terminal Aerodrome Forecast
Issued by NWS Knoxville/Tri Cities, TN

Home | Current Version | Previous Version | Text Only | Print | Product List | Glossary On
Versions: 1 2 3 4 5 6 7 8 9 10 11 12 13 14 15 16 17 18 19 20 21 22 23 24 25 26
000
FTUS44 KMRX 201720
TAFTYS
TAF
KTYS 201720Z 2018/2118 01005KT P6SM OVC025
     FM202100 01005KT P6SM BKN035
     FM210000 00000KT P6SM SCT035
     FM210900 00000KT 3SM BR SCT002
     FM211400 04005KT P6SM SCT035=

USA.gov is the U.S. government's official web portal to all federal, state and local government web resources and services.